• Join FlightAware (Why Join?)
  • Login
  • US Flag 
02:18AM EDT


 

Airport Tracker/Info


-or-


 

Live Flight TrackerFlight Track Log ✈ AWE1776 ✈ 27-Apr-2012 ✈ KIAH - KPHL

Flight Track Log - Related Links

Times and Time Zones

All times are in EDT time to prevent confusion due to time zone crossing. See the AWE1776 flight status page for this flight to view local times or setup timezone preferences in your user account.

Time Position Orientation Groundspeed Altitude Reporting Facility
EDT Latitude Longitude Course Direction KTS MPH feet Rate Location/Type
07:38AM 30.0005 -95.3162 161° South  Level FlightAware Approximate
07:39AM 29.9739 -95.3056 22° Northeast 245 282 2,300  Level Houston Center
07:40AM 30.0500 -95.2697 34° Northeast 285 328 4,500 2,400 Climbing Houston Center
07:41AM 30.1203 -95.2147 32° Northeast 285 328 7,300 2,700 Climbing Houston Center
07:42AM 30.1925 -95.1619 31° Northeast 290 334 10,000 2,040 Climbing Houston Center
07:43AM 30.2711 -95.1069 32° Northeast 308 354 11,400 1,860 Climbing Houston Center
07:44AM 30.3561 -95.0447 35° Northeast 336 387 13,800 2,280 Climbing Houston Center
07:45AM 30.4414 -94.9753 32° Northeast 354 407 16,000 2,040 Climbing Houston Center
07:46AM 30.5328 -94.9083 34° Northeast 372 428 17,900 1,920 Climbing Houston Center
07:47AM 30.6242 -94.8367 33° Northeast 382 440 19,900 1,920 Climbing Houston Center
07:48AM 30.7197 -94.7647 34° Northeast 395 455 21,800 1,680 Climbing Houston Center
07:49AM 30.8133 -94.6903 34° Northeast 401 461 23,300 1,380 Climbing Houston Center
07:50AM 30.9111 -94.6133 33° Northeast 411 473 24,600 1,140 Climbing Houston Center
07:51AM 31.0544 -94.5036 33° Northeast 444 511 26,200 1,020 Climbing Fort Worth Center
07:52AM 31.1489 -94.4328 35° Northeast 451 519 27,200 1,200 Climbing Fort Worth Center
07:53AM 31.2678 -94.3367 32° Northeast 451 519 28,600 900 Climbing Fort Worth Center
07:54AM 31.3744 -94.2578 34° Northeast 456 525 29,000 600 Climbing Fort Worth Center
07:55AM 31.4828 -94.1711 33° Northeast 456 525 29,900 900 Climbing Fort Worth Center
07:56AM 31.5850 -94.0919 33° Northeast 475 547 30,900 1,140 Climbing Fort Worth Center
07:57AM 31.7036 -93.9997 47° Northeast 482 555 32,200 1,140 Climbing Fort Worth Center
07:58AM 31.7964 -93.8814 53° Northeast 469 540 33,200 1,020 Climbing Fort Worth Center
07:59AM 31.8783 -93.7536 52° Northeast 469 540 34,300 1,200 Climbing Fort Worth Center
08:00AM 31.9583 -93.6328 52° Northeast 477 549 35,600 1,200 Climbing Fort Worth Center
08:01AM 32.0403 -93.5094 53° Northeast 477 549 36,800 900 Climbing Fort Worth Center
08:02AM 32.1197 -93.3858 55° Northeast 472 543 37,400 720 Climbing Fort Worth Center
08:03AM 32.2031 -93.2472 52° Northeast 472 543 38,300 660 Climbing Fort Worth Center
08:04AM 32.2825 -93.1281 49° Northeast 467 537 38,800 300 Climbing Fort Worth Center
08:05AM 32.3561 -93.0286 55° Northeast 452 520 39,000 60 Climbing Fort Worth Center
08:06AM 32.4369 -92.8894 51° Northeast 460 529 39,000  Level Fort Worth Center
08:07AM 32.5161 -92.7722 52° Northeast 465 535 39,000  Level Fort Worth Center
08:08AM 32.5950 -92.6522 53° Northeast 465 535 39,000  Level Fort Worth Center
08:09AM 32.6719 -92.5297 52° Northeast 460 529 39,000  Level Fort Worth Center
08:11AM 32.7792 -92.3636 52° Northeast 461 531 39,000  Level Memphis Center
08:12AM 32.8581 -92.2442 54° Northeast 461 531 39,000  Level Memphis Center
08:13AM 32.9331 -92.1219 53° Northeast 456 525 39,000  Level Memphis Center
08:14AM 33.0161 -91.9900 53° Northeast 456 525 39,000  Level Memphis Center
08:15AM 33.0908 -91.8722 53° Northeast 451 519 39,000  Level Memphis Center
08:16AM 33.1694 -91.7494 54° Northeast 451 519 39,000  Level Memphis Center
08:17AM 33.2439 -91.6289 53° Northeast 451 519 39,000  Level Memphis Center
08:18AM 33.3181 -91.5108 54° Northeast 451 519 39,000  Level Memphis Center
08:19AM 33.3942 -91.3872 52° Northeast 456 525 39,000  Level Memphis Center
08:20AM 33.4703 -91.2686 54° Northeast 456 525 39,000  Level Memphis Center
08:21AM 33.5461 -91.1447 54° Northeast 456 525 39,000  Level Memphis Center
08:22AM 33.6200 -91.0233 52° Northeast 456 525 39,000  Level Memphis Center
08:23AM 33.7000 -90.8989 54° Northeast 461 531 39,000  Level Memphis Center
08:24AM 33.7756 -90.7744 54° Northeast 455 524 39,000  Level Memphis Center
08:25AM 33.8425 -90.6647 55° Northeast 455 524 39,000  Level Memphis Center
08:26AM 33.9158 -90.5400 54° Northeast 455 524 39,000  Level Memphis Center
08:27AM 33.9994 -90.4022 54° Northeast 455 524 39,000  Level Memphis Center
08:28AM 34.0747 -90.2769 54° Northeast 463 533 39,000  Level Memphis Center
08:29AM 34.1494 -90.1539 55° Northeast 458 527 39,000  Level Memphis Center
08:30AM 34.2244 -90.0256 54° Northeast 458 527 39,000  Level Memphis Center
08:31AM 34.2992 -89.8994 54° Northeast 458 527 39,000  Level Memphis Center
08:32AM 34.3758 -89.7708 55° Northeast 466 536 39,000  Level Memphis Center
08:33AM 34.4503 -89.6419 54° Northeast 466 536 39,000  Level Memphis Center
08:34AM 34.5267 -89.5125 54° Northeast 471 542 39,000  Level Memphis Center
08:35AM 34.6028 -89.3831 54° Northeast 471 542 39,000  Level Memphis Center
08:36AM 34.6792 -89.2561 55° Northeast 471 542 39,000  Level Memphis Center
08:37AM 34.7550 -89.1261 54° Northeast 471 542 39,000  Level Memphis Center
08:38AM 34.8308 -88.9986 54° Northeast 471 542 39,000  Level Memphis Center
08:39AM 34.9044 -88.8733 54° Northeast 463 533 39,000  Level Memphis Center
08:40AM 34.9800 -88.7453 55° Northeast 458 527 39,000  Level Memphis Center
08:41AM 35.0514 -88.6194 55° Northeast 452 520 39,000  Level Memphis Center
08:42AM 35.1186 -88.5039 53° Northeast 459 528 39,000  Level Memphis Center
08:43AM 35.1919 -88.3828 55° Northeast 454 522 39,000  Level Memphis Center
08:44AM 35.2647 -88.2539 55° Northeast 454 522 39,000  Level Memphis Center
08:45AM 35.3397 -88.1247 57° Northeast 459 528 39,000  Level Memphis Center
08:46AM 35.4083 -87.9931 54° Northeast 459 528 39,000  Level Memphis Center
08:47AM 35.4808 -87.8686 56° Northeast 459 528 39,000  Level Memphis Center
08:48AM 35.5533 -87.7364 54° Northeast 459 528 39,000  Level Memphis Center
08:49AM 35.6275 -87.6089 56° Northeast 459 528 39,000  Level Memphis Center
08:50AM 35.6978 -87.4786 60° Northeast 459 528 39,000  Level Memphis Center
08:51AM 35.7611 -87.3458 65° Northeast 454 522 39,000  Level Memphis Center
08:52AM 35.8161 -87.2006 66° East 460 529 39,000  Level Memphis Center
08:53AM 35.8744 -87.0419 68° East 460 529 39,000  Level Memphis Center
08:54AM 35.9244 -86.8914 66° East 460 529 39,100  Climbing Memphis Center
08:55AM 35.9767 -86.7456 66° East 460 529 39,000 -60 Descending Memphis Center
08:56AM 36.0306 -86.5969 67° East 460 529 39,000  Level Memphis Center
08:57AM 36.0803 -86.4508 66° East 460 529 39,000  Level Memphis Center
08:58AM 36.1319 -86.3069 66° East 460 529 39,000  Level Memphis Center
08:59AM 36.2158 -86.0692 67° East 482 555 39,000  Level Indianapolis Center
09:00AM 36.2667 -85.9239 67° East 461 531 39,000  Level Indianapolis Center
09:01AM 36.3156 -85.7786 67° East 452 520 39,000  Level Indianapolis Center
09:02AM 36.3661 -85.6331 67° East 452 520 39,000  Level Indianapolis Center
09:03AM 36.4167 -85.4847 69° East 452 520 39,000  Level Indianapolis Center
09:04AM 36.4628 -85.3386 67° East 452 520 39,000  Level Indianapolis Center
09:05AM 36.5150 -85.1875 66° East 452 520 39,000  Level Indianapolis Center
09:06AM 36.5672 -85.0386 68° East 452 520 39,000  Level Indianapolis Center
09:07AM 36.6103 -84.9075 69° East 452 520 39,000  Level Indianapolis Center
09:08AM 36.6581 -84.7556 67° East 452 520 39,000  Level Indianapolis Center
09:09AM 36.7072 -84.6086 68° East 457 526 39,000  Level Indianapolis Center
09:10AM 36.7544 -84.4592 67° East 457 526 39,000  Level Indianapolis Center
09:11AM 36.8056 -84.3092 68° East 457 526 39,000  Level Indianapolis Center
09:12AM 36.8544 -84.1592 68° East 457 526 39,000  Level Indianapolis Center
09:13AM 36.9031 -84.0089 68° East 462 532 39,000  Level Indianapolis Center
09:14AM 36.9517 -83.8558 68° East 462 532 39,000  Level Indianapolis Center
09:15AM 36.9997 -83.7053 69° East 467 537 39,000  Level Indianapolis Center
09:16AM 37.0458 -83.5544 67° East 467 537 39,000  Level Indianapolis Center
09:17AM 37.0958 -83.4033 69° East 475 547 39,000  Level Indianapolis Center
09:18AM 37.1475 -83.2339 67° East 475 547 39,000  Level Indianapolis Center
09:19AM 37.1992 -83.0797 69° East 475 547 39,000  Level Indianapolis Center
09:20AM 37.2464 -82.9256 70° East 470 541 39,000  Level Indianapolis Center
09:21AM 37.2914 -82.7711 69° East 477 549 39,000  Level Indianapolis Center
09:22AM 37.3383 -82.6192 69° East 477 549 39,000  Level Indianapolis Center
09:23AM 37.3850 -82.4644 69° East 472 543 39,000  Level Indianapolis Center
09:24AM 37.4314 -82.3094 69° East 472 543 39,000  Level Indianapolis Center
09:25AM 37.4775 -82.1569 69° East 466 536 39,000  Level Indianapolis Center
09:26AM 37.5236 -82.0014 70° East 466 536 39,000  Level Indianapolis Center
09:27AM 37.5694 -81.8433 69° East 471 542 39,000  Level Indianapolis Center
09:28AM 37.6150 -81.6928 70° East 471 542 39,000 -180 Level Indianapolis Center
09:31AM 37.7058 -81.3825 70° East 476 548 38,500 -540 Descending Washington Center
09:32AM 37.7508 -81.2258 76° East 476 548 37,500 -780 Descending Washington Center
09:33AM 37.7808 -81.0756 84° East 482 555 37,000 -300 Descending Washington Center
09:34AM 37.7950 -80.9006 85° East 488 562 37,000  Level Washington Center
09:35AM 37.8069 -80.7253 85° East 493 567 37,000  Level Washington Center
09:36AM 37.8183 -80.5525 85° East 493 567 37,000 -480 Level Washington Center
09:37AM 37.8297 -80.3769 86° East 493 567 36,100 -1,020 Descending Washington Center
09:38AM 37.8414 -80.1806 85° East 498 573 35,000 -780 Descending Washington Center
09:39AM 37.8522 -80.0050 85° East 498 573 34,600 -720 Descending Washington Center
09:40AM 37.8647 -79.8294 86° East 498 573 33,600 -840 Descending Washington Center
09:41AM 37.8753 -79.6511 86° East 498 573 33,000 -300 Descending Washington Center
09:42AM 37.8850 -79.4781 87° East 498 573 33,000  Level Washington Center
09:43AM 37.8928 -79.3022 85° East 498 573 33,000  Level Washington Center
09:44AM 37.9039 -79.1419 83° East 498 573 33,000 -60 Level Washington Center
09:45AM 37.9211 -78.9744 82° East 492 566 32,900  Descending Washington Center
09:46AM 37.9406 -78.8042 81° East 492 566 33,000  Climbing Washington Center
09:47AM 37.9617 -78.6286 81° East 497 572 33,000  Level Washington Center
09:48AM 37.9828 -78.4528 81° East 497 572 33,000 -180 Level Washington Center
09:49AM 38.0061 -78.2586 72° East 502 578 32,700 -660 Descending Washington Center
09:50AM 38.0469 -78.0942 60° Northeast 496 571 31,700 -900 Descending Washington Center
09:51AM 38.1125 -77.9511 57° Northeast 480 552 31,000 -360 Descending Washington Center
09:52AM 38.1842 -77.8081 57° Northeast 469 540 31,000 -300 Level Washington Center
09:53AM 38.2575 -77.6622 59° Northeast 474 545 30,400 -840 Descending Washington Center
09:54AM 38.3289 -77.5133 57° Northeast 484 557 29,400 -720 Descending Washington Center
09:55AM 38.4042 -77.3669 58° Northeast 491 565 29,000 -600 Descending Washington Center
09:56AM 38.4792 -77.2122 57° Northeast 497 572 28,200 -900 Descending Washington Center
09:57AM 38.5564 -77.0572 59° Northeast 503 579 27,200 -1,020 Descending Washington Center
09:58AM 38.6247 -76.9122 59° Northeast 515 593 26,200 -1,560 Descending Washington Center
09:59AM 38.6992 -76.7542 72° East 515 593 24,200 -1,500 Descending Washington Center
10:00AM 38.7425 -76.5792 75° East 515 593 23,200 -1,260 Descending Washington Center
10:01AM 38.7792 -76.3986 75° East 515 593 21,700 -2,040 Descending Washington Center
10:02AM 38.8114 -76.2389 75° East 488 562 19,200 -2,580 Descending Washington Center
10:03AM 38.8436 -76.0794 75° East 466 536 16,600 -2,100 Descending Washington Center
10:04AM 38.8753 -75.9303 63° Northeast 447 514 15,000 -840 Descending Washington Center
10:05AM 38.9278 -75.7969 30° Northeast 437 503 15,000 -720 Level Washington Center
10:06AM 39.0933 -75.6753 North 350 403 13,100 -1,200 Descending FAA TRACON SMA TRACON (SMA)
10:07AM 39.1506 -75.6683 North 328 377 12,300 -1,440 Descending FAA TRACON SMA TRACON (SMA)
10:08AM 39.2128 -75.6608 North 321 369 11,200 -1,440 Descending FAA TRACON SMA TRACON (SMA)
10:08AM 39.2717 -75.6536 North 307 353 10,400 -900 Descending FAA TRACON SMA TRACON (SMA)
10:09AM 39.3183 -75.6489 North 282 325 10,000 -300 Descending FAA TRACON SMA TRACON (SMA)
10:10AM 39.3664 -75.6419 North 246 283 10,000 -840 Level FAA TRACON SMA TRACON (SMA)
10:10AM 39.4150 -75.6367 26° Northeast 251 289 8,900 -1,620 Descending FAA TRACON SMA TRACON (SMA)
10:11AM 39.4542 -75.6119 63° Northeast 286 329 7,900 -1,440 Descending FAA TRACON SMA TRACON (SMA)
10:12AM 39.4792 -75.5492 63° Northeast 284 327 7,000 -720 Descending FAA TRACON SMA TRACON (SMA)
10:12AM 39.5014 -75.4928 63° Northeast 285 328 7,000  Level FAA TRACON SMA TRACON (SMA)
10:13AM 39.5261 -75.4292 63° Northeast 284 327 7,000  Level FAA TRACON SMA TRACON (SMA)
10:14AM 39.5506 -75.3661 55° Northeast 284 327 7,000  Level FAA TRACON SMA TRACON (SMA)
10:14AM 39.5800 -75.3108 32° Northeast 268 308 7,000 -240 Level FAA TRACON SMA TRACON (SMA)
10:15AM 39.6178 -75.2797 34° Northeast 268 308 6,700 -780 Descending FAA TRACON SMA TRACON (SMA)
10:16AM 39.6597 -75.2433 35° Northeast 264 304 6,000 -540 Descending FAA TRACON SMA TRACON (SMA)
10:16AM 39.7011 -75.2061 34° Northeast 265 305 6,000  Level FAA TRACON SMA TRACON (SMA)
10:17AM 39.7392 -75.1728 34° Northeast 266 306 6,000  Level FAA TRACON SMA TRACON (SMA)
10:18AM 39.7817 -75.1356 60° Northeast 264 304 6,000 -120 Level FAA TRACON SMA TRACON (SMA)
10:18AM 39.8039 -75.0847 75° East 233 268 5,900  Descending FAA TRACON SMA TRACON (SMA)
10:19AM 39.8139 -75.0356 75° East 220 253 6,000 -480 Climbing FAA TRACON SMA TRACON (SMA)
10:20AM 39.8247 -74.9836 69° East 216 249 5,300 -1,320 Descending FAA TRACON SMA TRACON (SMA)
10:20AM 39.8389 -74.9344 North 206 237 4,300 -1,020 Descending FAA TRACON SMA TRACON (SMA)
10:21AM 39.8708 -74.9308 353° North 193 222 4,000 -720 Descending FAA TRACON SMA TRACON (SMA)
10:22AM 39.9053 -74.9364 302° West 181 208 3,400 -780 Descending FAA TRACON SMA TRACON (SMA)
10:22AM 39.9217 -74.9700 261° West 166 191 3,000 -300 Descending FAA TRACON SMA TRACON (SMA)
10:23AM 39.9172 -75.0081 256° West 175 201 3,000 -180 Level FAA TRACON SMA TRACON (SMA)
10:24AM 39.9094 -75.0489 256° West 167 192 2,800 -360 Descending FAA TRACON SMA TRACON (SMA)